Terminal Aerodrome Forecast
Issued by NWS

Home | Current Version | Previous Version | Text Only | Print | Product List | Glossary On
Versions: 1 2 3 4 5 6 7 8 9 10 11 12 13 14 15 16 17
000
FTUS43 KSGF 031700
TAFBBG
TAF
KBBG 031720Z 0318/0418 25005KT P6SM -SHRA VCTS SCT015 BKN025CB
      TEMPO 0318/0321 6SM -TSRA BR OVC030CB
     FM032100 30005KT P6SM VCSH BKN040
     FM040100 VRB02KT P6SM BKN250
     FM041000 VRB04KT 5SM BR BKN100
     FM041600 13005KT P6SM BKN050=

USA.gov is the U.S. government's official web portal to all federal, state and local government web resources and services.